sensor_id;sensor_type;location;lat;lon;timestamp;P1;durP1;ratioP1;P2;durP2;ratioP2
35757;SDS011;21879;50.110;18.900;2023-04-01T00:08:54;5.30;;;1.70;;
35757;SDS011;21879;50.110;18.900;2023-04-01T00:19:20;4.30;;;2.30;;
35757;SDS011;21879;50.110;18.900;2023-04-01T00:29:46;3.70;;;2.30;;
35757;SDS011;21879;50.110;18.900;2023-04-01T00:40:21;6.50;;;2.90;;
35757;SDS011;21879;50.110;18.900;2023-04-01T00:50:50;5.90;;;2.90;;
35757;SDS011;21879;50.110;18.900;2023-04-01T01:01:20;7.00;;;2.70;;
35757;SDS011;21879;50.110;18.900;2023-04-01T01:11:50;5.80;;;4.00;;
35757;SDS011;21879;50.110;18.900;2023-04-01T01:22:25;7.50;;;4.00;;
35757;SDS011;21879;50.110;18.900;2023-04-01T01:33:08;9.30;;;4.50;;
35757;SDS011;21879;50.110;18.900;2023-04-01T01:43:46;7.20;;;3.80;;
35757;SDS011;21879;50.110;18.900;2023-04-01T01:54:15;7.70;;;3.60;;
35757;SDS011;21879;50.110;18.900;2023-04-01T02:04:42;8.20;;;3.60;;
35757;SDS011;21879;50.110;18.900;2023-04-01T02:15:11;7.40;;;3.30;;
35757;SDS011;21879;50.110;18.900;2023-04-01T02:25:39;7.60;;;3.60;;
35757;SDS011;21879;50.110;18.900;2023-04-01T02:36:07;5.00;;;2.70;;
35757;SDS011;21879;50.110;18.900;2023-04-01T02:46:36;4.40;;;2.20;;
35757;SDS011;21879;50.110;18.900;2023-04-01T02:57:02;2.60;;;1.50;;
35757;SDS011;21879;50.110;18.900;2023-04-01T03:07:28;5.00;;;2.00;;
35757;SDS011;21879;50.110;18.900;2023-04-01T03:17:54;3.80;;;1.30;;
35757;SDS011;21879;50.110;18.900;2023-04-01T03:28:20;3.20;;;1.60;;
35757;SDS011;21879;50.110;18.900;2023-04-01T03:38:54;4.30;;;1.70;;
35757;SDS011;21879;50.110;18.900;2023-04-01T03:49:19;3.50;;;1.60;;
35757;SDS011;21879;50.110;18.900;2023-04-01T03:59:45;5.50;;;1.70;;
35757;SDS011;21879;50.110;18.900;2023-04-01T04:10:11;4.50;;;2.00;;
35757;SDS011;21879;50.110;18.900;2023-04-01T04:20:37;6.30;;;2.10;;
35757;SDS011;21879;50.110;18.900;2023-04-01T04:31:11;3.10;;;2.00;;
35757;SDS011;21879;50.110;18.900;2023-04-01T04:41:42;4.30;;;2.40;;
35757;SDS011;21879;50.110;18.900;2023-04-01T04:52:07;5.70;;;2.20;;
35757;SDS011;21879;50.110;18.900;2023-04-01T05:02:34;5.60;;;2.60;;
35757;SDS011;21879;50.110;18.900;2023-04-01T05:13:00;2.80;;;1.50;;
35757;SDS011;21879;50.110;18.900;2023-04-01T05:23:26;5.30;;;2.20;;
35757;SDS011;21879;50.110;18.900;2023-04-01T05:33:53;6.90;;;2.80;;
35757;SDS011;21879;50.110;18.900;2023-04-01T05:44:18;6.20;;;3.00;;
35757;SDS011;21879;50.110;18.900;2023-04-01T05:54:44;10.90;;;4.70;;
35757;SDS011;21879;50.110;18.900;2023-04-01T06:05:13;7.60;;;4.30;;
35757;SDS011;21879;50.110;18.900;2023-04-01T06:15:43;6.70;;;4.20;;
35757;SDS011;21879;50.110;18.900;2023-04-01T06:26:23;9.50;;;4.20;;
35757;SDS011;21879;50.110;18.900;2023-04-01T06:36:59;8.40;;;4.10;;
35757;SDS011;21879;50.110;18.900;2023-04-01T06:47:42;6.30;;;2.90;;
35757;SDS011;21879;50.110;18.900;2023-04-01T06:58:20;4.20;;;2.10;;
35757;SDS011;21879;50.110;18.900;2023-04-01T07:08:48;7.90;;;3.50;;
35757;SDS011;21879;50.110;18.900;2023-04-01T07:19:18;7.30;;;4.30;;
35757;SDS011;21879;50.110;18.900;2023-04-01T07:29:51;6.00;;;2.70;;
35757;SDS011;21879;50.110;18.900;2023-04-01T07:40:23;5.70;;;2.20;;
35757;SDS011;21879;50.110;18.900;2023-04-01T07:50:59;5.60;;;2.70;;
35757;SDS011;21879;50.110;18.900;2023-04-01T08:01:33;5.10;;;2.60;;
35757;SDS011;21879;50.110;18.900;2023-04-01T08:12:07;4.20;;;2.70;;
35757;SDS011;21879;50.110;18.900;2023-04-01T08:22:45;8.80;;;3.60;;
35757;SDS011;21879;50.110;18.900;2023-04-01T08:33:17;6.10;;;3.40;;
35757;SDS011;21879;50.110;18.900;2023-04-01T08:44:11;4.50;;;2.50;;
35757;SDS011;21879;50.110;18.900;2023-04-01T08:54:59;5.90;;;3.20;;
35757;SDS011;21879;50.110;18.900;2023-04-01T09:05:37;5.10;;;3.20;;
35757;SDS011;21879;50.110;18.900;2023-04-01T09:16:22;6.30;;;3.00;;
35757;SDS011;21879;50.110;18.900;2023-04-01T09:27:05;3.20;;;2.00;;
35757;SDS011;21879;50.110;18.900;2023-04-01T09:37:41;2.20;;;1.60;;
35757;SDS011;21879;50.110;18.900;2023-04-01T09:48:24;3.70;;;2.10;;
35757;SDS011;21879;50.110;18.900;2023-04-01T09:59:20;4.10;;;2.30;;
35757;SDS011;21879;50.110;18.900;2023-04-01T10:21:28;4.60;;;2.90;;
35757;SDS011;21879;50.110;18.900;2023-04-01T10:43:38;3.40;;;1.80;;
35757;SDS011;21879;50.110;18.900;2023-04-01T10:54:35;5.80;;;2.80;;
35757;SDS011;21879;50.110;18.900;2023-04-01T11:16:23;3.20;;;1.50;;
35757;SDS011;21879;50.110;18.900;2023-04-01T11:27:08;2.20;;;1.20;;
35757;SDS011;21879;50.110;18.900;2023-04-01T11:37:44;3.70;;;1.80;;
35757;SDS011;21879;50.110;18.900;2023-04-01T11:48:22;3.50;;;1.40;;
35757;SDS011;21879;50.110;18.900;2023-04-01T12:10:12;4.30;;;2.10;;
35757;SDS011;21879;50.110;18.900;2023-04-01T12:20:45;3.60;;;1.70;;
35757;SDS011;21879;50.110;18.900;2023-04-01T12:31:20;4.00;;;1.60;;
35757;SDS011;21879;50.110;18.900;2023-04-01T12:41:58;7.60;;;2.20;;
35757;SDS011;21879;50.110;18.900;2023-04-01T12:52:38;13.00;;;11.70;;
35757;SDS011;21879;50.110;18.900;2023-04-01T13:03:19;4.70;;;2.60;;
35757;SDS011;21879;50.110;18.900;2023-04-01T13:14:02;7.80;;;4.00;;
35757;SDS011;21879;50.110;18.900;2023-04-01T13:24:55;6.90;;;4.60;;
35757;SDS011;21879;50.110;18.900;2023-04-01T13:35:29;7.50;;;5.10;;
35757;SDS011;21879;50.110;18.900;2023-04-01T13:46:07;6.40;;;3.80;;
35757;SDS011;21879;50.110;18.900;2023-04-01T13:56:53;10.20;;;5.60;;
35757;SDS011;21879;50.110;18.900;2023-04-01T14:07:35;11.30;;;4.70;;
35757;SDS011;21879;50.110;18.900;2023-04-01T14:18:15;7.00;;;5.10;;
35757;SDS011;21879;50.110;18.900;2023-04-01T14:28:53;6.90;;;3.90;;
35757;SDS011;21879;50.110;18.900;2023-04-01T14:39:36;6.80;;;2.90;;
35757;SDS011;21879;50.110;18.900;2023-04-01T14:50:14;6.10;;;2.80;;
35757;SDS011;21879;50.110;18.900;2023-04-01T15:00:53;5.10;;;3.90;;
35757;SDS011;21879;50.110;18.900;2023-04-01T15:11:30;3.70;;;2.60;;
35757;SDS011;21879;50.110;18.900;2023-04-01T15:22:12;9.50;;;5.70;;
35757;SDS011;21879;50.110;18.900;2023-04-01T15:32:53;7.50;;;4.10;;
35757;SDS011;21879;50.110;18.900;2023-04-01T15:43:30;7.10;;;4.30;;
35757;SDS011;21879;50.110;18.900;2023-04-01T16:04:52;9.70;;;5.30;;
35757;SDS011;21879;50.110;18.900;2023-04-01T16:15:24;12.50;;;7.40;;
35757;SDS011;21879;50.110;18.900;2023-04-01T16:25:57;14.80;;;8.70;;
35757;SDS011;21879;50.110;18.900;2023-04-01T16:36:30;19.60;;;13.50;;
35757;SDS011;21879;50.110;18.900;2023-04-01T16:46:59;14.90;;;6.70;;
35757;SDS011;21879;50.110;18.900;2023-04-01T16:57:37;13.30;;;8.00;;
35757;SDS011;21879;50.110;18.900;2023-04-01T17:18:48;12.80;;;8.80;;
35757;SDS011;21879;50.110;18.900;2023-04-01T17:29:23;10.50;;;6.60;;
35757;SDS011;21879;50.110;18.900;2023-04-01T17:39:58;8.70;;;5.20;;
35757;SDS011;21879;50.110;18.900;2023-04-01T17:50:42;10.60;;;5.80;;
35757;SDS011;21879;50.110;18.900;2023-04-01T18:01:19;12.50;;;8.10;;
35757;SDS011;21879;50.110;18.900;2023-04-01T18:11:57;13.70;;;7.20;;
35757;SDS011;21879;50.110;18.900;2023-04-01T18:22:36;9.60;;;6.00;;
35757;SDS011;21879;50.110;18.900;2023-04-01T18:33:09;9.80;;;6.40;;
35757;SDS011;21879;50.110;18.900;2023-04-01T18:43:48;7.60;;;5.20;;
35757;SDS011;21879;50.110;18.900;2023-04-01T18:54:26;10.90;;;6.60;;
35757;SDS011;21879;50.110;18.900;2023-04-01T19:05:00;10.50;;;8.10;;
35757;SDS011;21879;50.110;18.900;2023-04-01T19:15:32;11.70;;;7.90;;
35757;SDS011;21879;50.110;18.900;2023-04-01T19:26:04;9.20;;;6.10;;
35757;SDS011;21879;50.110;18.900;2023-04-01T19:36:35;16.80;;;12.60;;
35757;SDS011;21879;50.110;18.900;2023-04-01T19:47:11;16.50;;;11.30;;
35757;SDS011;21879;50.110;18.900;2023-04-01T19:57:46;19.40;;;12.30;;
35757;SDS011;21879;50.110;18.900;2023-04-01T20:08:18;22.00;;;13.90;;
35757;SDS011;21879;50.110;18.900;2023-04-01T20:18:52;20.70;;;14.10;;
35757;SDS011;21879;50.110;18.900;2023-04-01T20:29:27;18.70;;;14.50;;
35757;SDS011;21879;50.110;18.900;2023-04-01T20:51:01;20.80;;;15.50;;
35757;SDS011;21879;50.110;18.900;2023-04-01T21:01:33;28.30;;;17.70;;
35757;SDS011;21879;50.110;18.900;2023-04-01T21:12:12;24.80;;;17.00;;
35757;SDS011;21879;50.110;18.900;2023-04-01T21:22:56;24.80;;;16.70;;
35757;SDS011;21879;50.110;18.900;2023-04-01T21:33:42;22.80;;;14.40;;
35757;SDS011;21879;50.110;18.900;2023-04-01T21:44:23;28.40;;;17.50;;
35757;SDS011;21879;50.110;18.900;2023-04-01T21:55:06;26.00;;;16.40;;
35757;SDS011;21879;50.110;18.900;2023-04-01T22:05:51;22.10;;;15.10;;
35757;SDS011;21879;50.110;18.900;2023-04-01T22:16:26;23.20;;;15.80;;
35757;SDS011;21879;50.110;18.900;2023-04-01T22:26:56;20.50;;;15.70;;
35757;SDS011;21879;50.110;18.900;2023-04-01T22:37:29;20.90;;;15.50;;
35757;SDS011;21879;50.110;18.900;2023-04-01T22:48:04;19.00;;;15.30;;
35757;SDS011;21879;50.110;18.900;2023-04-01T22:58:35;21.20;;;14.50;;
35757;SDS011;21879;50.110;18.900;2023-04-01T23:09:08;24.40;;;17.90;;
35757;SDS011;21879;50.110;18.900;2023-04-01T23:19:40;26.90;;;18.10;;
35757;SDS011;21879;50.110;18.900;2023-04-01T23:30:17;25.20;;;19.40;;
35757;SDS011;21879;50.110;18.900;2023-04-01T23:41:18;22.90;;;18.80;;
35757;SDS011;21879;50.110;18.900;2023-04-01T23:51:50;23.40;;;18.50;;
